createdAt,value
2019-02-27T00:01:10.318Z,99887.72
2019-02-27T00:03:17.203Z,99905.23
2019-02-27T00:05:24.635Z,99906.38
2019-02-27T00:07:32.041Z,99860.43
2019-02-27T00:09:39.317Z,99895.94
2019-02-27T00:11:46.849Z,99891.63
2019-02-27T00:13:57.635Z,99887.55
2019-02-27T00:16:03.677Z,99886.72
2019-02-27T00:18:11.509Z,99872.53
2019-02-27T00:20:20.257Z,99878.73
2019-02-27T00:22:27.773Z,99869.53
2019-02-27T00:24:34.975Z,99865.83
2019-02-27T00:26:42.469Z,99873.17
2019-02-27T00:28:49.861Z,99869.67
2019-02-27T00:30:56.603Z,99863.18
2019-02-27T00:33:03.528Z,99868.53
2019-02-27T00:35:10.261Z,99880.86
2019-02-27T00:37:19.012Z,99881.59
2019-02-27T00:39:26.313Z,99889.31
2019-02-27T00:41:33.080Z,99883.89
2019-02-27T00:43:39.828Z,99881.56
2019-02-27T00:45:46.586Z,99893.84
2019-02-27T00:47:53.842Z,99898.96
2019-02-27T00:50:05.774Z,99893.72
2019-02-27T00:52:09.463Z,99893.91
2019-02-27T00:54:16.255Z,99891.58
2019-02-27T00:56:23.038Z,99888.95
2019-02-27T00:58:30.355Z,99893.02
2019-02-27T01:00:39.342Z,99899.45
2019-02-27T01:02:45.556Z,99899.66
2019-02-27T01:04:52.790Z,99893.30
2019-02-27T01:06:59.558Z,99894.37
2019-02-27T01:09:07.418Z,99886.13
2019-02-27T01:11:18.196Z,99881.95
2019-02-27T01:13:22.981Z,99869.16
2019-02-27T01:15:30.822Z,99867.94
2019-02-27T01:17:38.248Z,99864.42
2019-02-27T01:19:45.015Z,99855.13
2019-02-27T01:21:52.293Z,99846.47
2019-02-27T01:24:00.617Z,99855.08
2019-02-27T01:26:07.334Z,99842.21
2019-02-27T01:28:14.641Z,99840.70
2019-02-27T01:30:23.889Z,99837.80
2019-02-27T01:32:31.136Z,99838.84
2019-02-27T01:34:38.453Z,99833.31
2019-02-27T01:36:45.239Z,99838.73
2019-02-27T01:38:51.989Z,99823.85
2019-02-27T01:40:59.663Z,99815.67
2019-02-27T01:43:06.611Z,99817.11
2019-02-27T01:45:20.592Z,99820.50
2019-02-27T01:47:25.590Z,99813.19
2019-02-27T01:49:32.378Z,99802.73
2019-02-27T01:51:39.653Z,99809.50
2019-02-27T01:53:46.401Z,99801.89
2019-02-27T01:55:56.234Z,99797.63
2019-02-27T01:58:02.630Z,99789.23
2019-02-27T02:00:09.568Z,99791.87
2019-02-27T02:02:16.795Z,99791.04
2019-02-27T02:04:23.529Z,99771.79
2019-02-27T02:06:32.501Z,99765.66
2019-02-27T02:08:39.830Z,99770.63
2019-02-27T02:10:46.597Z,99771.58
2019-02-27T02:12:56.791Z,99773.39
2019-02-27T02:15:36.433Z,99765.11
2019-02-27T02:18:17.260Z,99767.58
2019-02-27T02:20:47.792Z,99754.97
2019-02-27T02:23:16.050Z,99753.28
2019-02-27T02:26:18.168Z,99749.33
2019-02-27T02:29:12.401Z,99731.65
2019-02-27T02:31:46.049Z,99729.23
2019-02-27T02:34:27.341Z,99736.31
2019-02-27T02:37:12.661Z,99728.42
2019-02-27T02:39:44.555Z,99741.23
2019-02-27T02:42:07.429Z,99725.20
2019-02-27T02:44:25.115Z,99720.42
2019-02-27T02:47:05.370Z,99710.43
2019-02-27T02:49:42.077Z,99707.98
2019-02-27T02:52:40.760Z,99713.28
2019-02-27T02:55:15.051Z,99714.25
2019-02-27T02:58:12.227Z,99712.20
2019-02-27T03:00:57.631Z,99711.97
2019-02-27T03:03:35.978Z,99706.94
2019-02-27T03:06:15.072Z,99708.89
2019-02-27T03:08:56.347Z,99702.77
2019-02-27T03:11:45.200Z,99707.22
2019-02-27T03:14:26.679Z,99702.58
2019-02-27T03:17:17.891Z,99681.07
2019-02-27T03:19:41.661Z,99680.83
2019-02-27T03:22:05.605Z,99680.55
2019-02-27T03:25:04.215Z,99670.33
2019-02-27T03:27:45.244Z,99652.68
2019-02-27T03:30:00.715Z,99654.03
2019-02-27T03:32:18.698Z,99649.98
2019-02-27T03:35:15.284Z,99651.77
2019-02-27T03:37:48.569Z,99637.77
2019-02-27T03:40:24.167Z,99633.24
2019-02-27T03:42:51.901Z,99640.79
2019-02-27T03:45:24.175Z,99616.28
2019-02-27T03:47:40.463Z,99616.28
2019-02-27T03:50:39.250Z,99621.61
2019-02-27T03:53:10.859Z,99616.17
2019-02-27T03:56:22.128Z,99615.29
2019-02-27T03:58:55.734Z,99597.98
2019-02-27T04:01:47.982Z,99593.95
2019-02-27T04:04:13.991Z,99588.58
2019-02-27T04:06:41.578Z,99589.91
2019-02-27T04:09:04.353Z,99590.92
2019-02-27T04:11:13.913Z,99572.27
2019-02-27T04:13:26.466Z,99570.02
2019-02-27T04:15:30.408Z,99554.16
2019-02-27T04:17:34.026Z,99555.50
2019-02-27T04:19:41.866Z,99554.36
2019-02-27T04:21:48.923Z,99550.92
2019-02-27T04:23:56.905Z,99551.04
2019-02-27T04:26:05.746Z,99542.75
2019-02-27T04:28:13.221Z,99542.59
2019-02-27T04:30:20.553Z,99545.88
2019-02-27T04:32:28.593Z,99542.18
2019-02-27T04:34:36.787Z,99551.72
2019-02-27T04:36:47.007Z,99545.57
2019-02-27T04:38:53.185Z,99539.13
2019-02-27T04:41:01.724Z,99543.36
2019-02-27T04:43:10.138Z,99548.48
2019-02-27T04:45:16.863Z,99537.48
2019-02-27T04:47:28.833Z,99531.20
2019-02-27T04:49:34.772Z,99535.78
2019-02-27T04:51:43.097Z,99531.59
2019-02-27T04:53:50.253Z,99525.91
2019-02-27T04:55:57.020Z,99519.59
2019-02-27T04:58:08.646Z,99523.39
2019-02-27T05:00:14.459Z,99513.14
2019-02-27T05:02:22.444Z,99501.83
2019-02-27T05:04:34.951Z,99496.09
2019-02-27T05:06:39.223Z,99483.67
2019-02-27T05:08:46.629Z,99490.37
2019-02-27T05:10:53.921Z,99485.91
2019-02-27T05:13:01.326Z,99462.65
2019-02-27T05:15:08.860Z,99458.23
2019-02-27T05:17:21.166Z,99450.54
2019-02-27T05:19:25.201Z,99443.80
2019-02-27T05:21:31.998Z,99429.94
2019-02-27T05:23:39.630Z,99428.59
2019-02-27T05:25:47.512Z,99433.30
2019-02-27T05:27:55.586Z,99441.31
2019-02-27T05:30:02.454Z,99443.67
2019-02-27T05:32:09.697Z,99435.33
2019-02-27T05:34:16.592Z,99442.55
2019-02-27T05:36:23.332Z,99439.71
2019-02-27T05:38:30.678Z,99434.30
2019-02-27T05:40:38.675Z,99429.14
2019-02-27T05:42:45.573Z,99422.69
2019-02-27T05:44:55.689Z,99414.42
2019-02-27T05:47:02.734Z,99420.11
2019-02-27T05:49:09.915Z,99413.30
2019-02-27T05:51:16.674Z,99427.66
2019-02-27T05:53:24.086Z,99426.56
2019-02-27T05:55:31.363Z,99422.96
2019-02-27T05:57:38.131Z,99424.39
2019-02-27T05:59:45.431Z,99427.46
2019-02-27T06:01:52.748Z,99424.59
2019-02-27T06:03:59.980Z,99425.88
2019-02-27T06:06:06.901Z,99426.23
2019-02-27T06:08:15.404Z,99418.31
2019-02-27T06:10:23.602Z,99411.44
2019-02-27T06:12:30.495Z,99421.42
2019-02-27T06:14:37.793Z,99415.49
2019-02-27T06:16:45.012Z,99432.13
2019-02-27T06:18:56.049Z,99437.34
2019-02-27T06:21:01.370Z,99432.20
2019-02-27T06:23:08.484Z,99428.19
2019-02-27T06:25:21.962Z,99438.88
2019-02-27T06:27:25.883Z,99437.11
2019-02-27T06:29:33.090Z,99429.80
2019-02-27T06:31:39.861Z,99430.63
2019-02-27T06:33:47.151Z,99435.90
2019-02-27T06:35:55.130Z,99433.27
2019-02-27T06:38:01.919Z,99430.52
2019-02-27T06:40:09.411Z,99426.97
2019-02-27T06:42:16.725Z,99423.80
2019-02-27T06:44:23.424Z,99428.76
2019-02-27T06:46:30.161Z,99433.42
2019-02-27T06:48:36.864Z,99421.61
2019-02-27T06:50:44.078Z,99422.45
2019-02-27T06:52:50.825Z,99418.55
2019-02-27T06:54:57.596Z,99421.99
2019-02-27T06:57:07.489Z,99432.43
2019-02-27T06:59:14.027Z,99440.33
2019-02-27T07:01:21.097Z,99434.72
2019-02-27T07:03:29.523Z,99430.98
2019-02-27T07:05:36.300Z,99441.41
2019-02-27T07:07:44.389Z,99446.39
2019-02-27T07:09:51.499Z,99446.25
2019-02-27T07:11:59.234Z,99443.77
2019-02-27T07:14:06.856Z,99449.30
2019-02-27T07:16:14.188Z,99446.72
2019-02-27T07:18:23.957Z,99450.57
2019-02-27T07:20:30.662Z,99441.06
2019-02-27T07:22:37.435Z,99423.48
2019-02-27T07:24:44.558Z,99417.69
2019-02-27T07:26:51.854Z,99417.73
2019-02-27T07:28:58.978Z,99420.59
2019-02-27T07:31:05.733Z,99419.80
2019-02-27T07:33:13.093Z,99412.87
2019-02-27T07:35:20.287Z,99414.23
2019-02-27T07:37:27.035Z,99419.64
2019-02-27T07:39:34.847Z,99421.12
2019-02-27T07:41:42.061Z,99421.75
2019-02-27T07:43:48.803Z,99413.22
2019-02-27T07:45:56.627Z,99402.89
2019-02-27T07:48:03.818Z,99399.84
2019-02-27T07:50:12.953Z,99394.13
2019-02-27T07:52:20.826Z,99389.22
2019-02-27T07:54:29.002Z,99378.58
2019-02-27T07:56:37.427Z,99384.67
2019-02-27T07:58:44.195Z,99379.03
2019-02-27T08:00:50.981Z,99371.23
2019-02-27T08:02:58.566Z,99366.53
2019-02-27T08:05:06.909Z,99345.17
2019-02-27T08:07:13.653Z,99339.11
2019-02-27T08:09:20.397Z,99343.24
2019-02-27T08:11:27.770Z,99335.62
2019-02-27T08:13:34.475Z,99332.50
2019-02-27T08:15:41.438Z,99323.83
2019-02-27T08:17:48.766Z,99324.05
2019-02-27T08:19:55.483Z,99318.15
2019-02-27T08:22:02.754Z,99322.52
2019-02-27T08:24:09.539Z,99311.28
2019-02-27T08:26:18.278Z,99309.41
2019-02-27T08:28:24.706Z,99314.72
2019-02-27T08:30:31.522Z,99307.72
2019-02-27T08:32:38.585Z,99292.80
2019-02-27T08:34:46.214Z,99297.41
2019-02-27T08:36:53.354Z,99306.08
2019-02-27T08:39:00.022Z,99296.23
2019-02-27T08:41:06.721Z,99294.87
2019-02-27T08:43:14.026Z,99280.93
2019-02-27T08:45:20.928Z,99275.10
2019-02-27T08:47:28.086Z,99279.23
2019-02-27T08:49:34.916Z,99266.22
2019-02-27T08:51:42.731Z,99275.18
2019-02-27T08:53:49.401Z,99279.52
2019-02-27T08:55:56.539Z,99280.44
2019-02-27T08:58:03.274Z,99282.19
2019-02-27T09:00:14.439Z,99285.83
2019-02-27T09:02:24.149Z,99290.90
2019-02-27T09:04:30.371Z,99276.73
2019-02-27T09:06:37.562Z,99257.95
2019-02-27T09:08:45.036Z,99256.91
2019-02-27T09:10:52.300Z,99260.23
2019-02-27T09:13:05.359Z,99266.54
2019-02-27T09:15:08.242Z,99264.35
2019-02-27T09:17:16.559Z,99259.64
2019-02-27T09:19:23.325Z,99271.63
2019-02-27T09:21:30.660Z,99253.94
2019-02-27T09:23:38.189Z,99250.09
2019-02-27T09:25:45.526Z,99249.48
2019-02-27T09:27:52.954Z,99251.36
2019-02-27T09:29:59.661Z,99250.11
2019-02-27T09:32:09.282Z,99241.77
2019-02-27T09:34:16.298Z,99246.45
2019-02-27T09:36:23.487Z,99238.93
2019-02-27T09:38:30.806Z,99238.02
2019-02-27T09:40:38.913Z,99233.03
2019-02-27T09:42:46.116Z,99229.59
2019-02-27T09:44:54.420Z,99231.37
2019-02-27T09:47:01.159Z,99236.38
2019-02-27T09:49:08.238Z,99247.37
2019-02-27T09:51:15.899Z,99256.03
2019-02-27T09:53:22.663Z,99242.78
2019-02-27T09:55:29.375Z,99241.95
2019-02-27T09:57:36.773Z,99236.42
2019-02-27T09:59:44.873Z,99241.08
2019-02-27T10:01:51.781Z,99230.27
2019-02-27T10:03:58.557Z,99223.28
2019-02-27T10:06:08.720Z,99214.45
2019-02-27T10:08:14.899Z,99211.38
2019-02-27T10:10:21.987Z,99211.69
2019-02-27T10:12:28.894Z,99210.60
2019-02-27T10:14:35.953Z,99214.23
2019-02-27T10:16:43.849Z,99203.23
2019-02-27T10:18:54.684Z,99205.34
2019-02-27T10:20:59.846Z,99204.09
2019-02-27T10:23:06.811Z,99202.94
2019-02-27T10:25:14.253Z,99205.55
2019-02-27T10:27:20.997Z,99218.69
2019-02-27T10:29:28.258Z,99209.30
2019-02-27T10:31:35.068Z,99215.54
2019-02-27T10:33:42.998Z,99215.44
2019-02-27T10:35:50.830Z,99212.83
2019-02-27T10:37:57.899Z,99204.92
2019-02-27T10:40:04.799Z,99189.09
2019-02-27T10:42:11.598Z,99193.04
2019-02-27T10:44:18.354Z,99207.48
2019-02-27T10:46:25.497Z,99195.73
2019-02-27T10:48:32.242Z,99190.17
2019-02-27T10:50:39.025Z,99206.36
2019-02-27T10:52:45.768Z,99212.39
2019-02-27T10:54:52.490Z,99149.38
2019-02-27T10:56:59.275Z,99171.20
2019-02-27T10:59:06.061Z,99164.75
2019-02-27T11:01:13.426Z,99172.23
2019-02-27T11:03:23.656Z,99164.00
2019-02-27T11:05:31.530Z,99184.52
2019-02-27T11:07:39.092Z,99191.84
2019-02-27T11:09:45.893Z,99192.15
2019-02-27T11:11:53.937Z,99188.27
2019-02-27T11:14:01.842Z,99187.03
2019-02-27T11:16:09.693Z,99041.67
2019-02-27T11:18:16.403Z,99229.91
2019-02-27T11:20:24.676Z,99221.38
2019-02-27T11:22:32.381Z,99202.20
2019-02-27T11:24:39.631Z,99183.88
2019-02-27T11:26:47.033Z,99171.30
2019-02-27T11:28:54.331Z,99173.69
2019-02-27T11:31:01.183Z,99185.59
2019-02-27T11:33:08.321Z,99174.27
2019-02-27T11:35:16.392Z,99168.11
2019-02-27T11:37:23.130Z,99161.14
2019-02-27T11:39:32.930Z,99166.47
2019-02-27T11:41:39.811Z,99162.77
2019-02-27T11:43:46.548Z,99151.55
2019-02-27T11:45:57.815Z,99151.88
2019-02-27T11:48:04.324Z,99153.73
2019-02-27T11:50:14.703Z,99165.17
2019-02-27T11:52:22.588Z,99175.60
2019-02-27T11:54:29.350Z,99189.84
2019-02-27T11:56:36.098Z,99190.97
2019-02-27T11:58:43.933Z,99191.25
2019-02-27T12:00:51.774Z,99192.11
2019-02-27T12:02:58.976Z,99192.08
2019-02-27T12:05:05.845Z,99183.11
2019-02-27T12:07:17.209Z,99165.64
2019-02-27T12:09:21.489Z,99168.23
2019-02-27T12:11:28.617Z,99194.91
2019-02-27T12:13:35.578Z,99205.44
2019-02-27T12:15:44.183Z,99206.08
2019-02-27T12:17:51.136Z,99205.43
2019-02-27T12:19:58.084Z,99198.26
2019-02-27T12:22:05.552Z,99189.00
2019-02-27T12:24:13.458Z,99182.75
2019-02-27T12:26:20.730Z,99176.84
2019-02-27T12:28:28.032Z,99165.80
2019-02-27T12:30:37.344Z,99153.95
2019-02-27T12:32:44.471Z,99150.30
2019-02-27T12:34:51.902Z,99156.11
2019-02-27T12:36:58.652Z,99150.38
2019-02-27T12:39:06.508Z,99141.00
2019-02-27T12:41:14.459Z,99139.34
2019-02-27T12:43:21.387Z,99142.42
2019-02-27T12:45:29.691Z,99151.16
2019-02-27T12:47:40.689Z,99138.42
2019-02-27T12:49:47.126Z,99129.23
2019-02-27T12:51:54.412Z,99129.98
2019-02-27T12:54:01.187Z,99122.14
2019-02-27T12:56:10.770Z,99120.16
2019-02-27T12:58:18.120Z,99114.21
2019-02-27T13:00:27.263Z,99131.58
2019-02-27T13:02:35.802Z,99140.13
2019-02-27T13:04:43.031Z,99140.94
2019-02-27T13:06:49.781Z,99136.28
2019-02-27T13:08:57.870Z,99127.52
2019-02-27T13:11:05.317Z,99129.66
2019-02-27T13:13:13.814Z,99136.27
2019-02-27T13:15:21.965Z,99135.09
2019-02-27T13:17:28.736Z,99149.00
2019-02-27T13:19:38.502Z,99152.27
2019-02-27T13:21:45.189Z,99150.62
2019-02-27T13:23:52.014Z,99143.31
2019-02-27T13:26:00.428Z,99139.66
2019-02-27T13:28:07.888Z,99149.94
2019-02-27T13:30:17.329Z,99150.40
2019-02-27T13:32:26.555Z,99158.43
2019-02-27T13:34:32.514Z,99145.59
2019-02-27T13:36:40.001Z,99163.70
2019-02-27T13:38:49.520Z,99165.03
2019-02-27T13:40:55.764Z,99158.62
2019-02-27T13:43:03.538Z,99148.55
2019-02-27T13:45:13.471Z,99137.74
2019-02-27T13:47:20.860Z,99130.47
2019-02-27T13:49:28.439Z,99111.83
2019-02-27T13:51:37.258Z,99116.36
2019-02-27T13:53:44.872Z,99111.27
2019-02-27T13:55:53.675Z,99114.42
2019-02-27T13:58:03.740Z,99111.25
2019-02-27T14:00:20.316Z,99103.04
2019-02-27T14:02:25.865Z,99091.69
2019-02-27T14:04:34.843Z,99106.80
2019-02-27T14:06:43.497Z,99115.45
2019-02-27T14:08:53.087Z,99117.75
2019-02-27T14:11:02.803Z,99117.34
2019-02-27T14:13:11.194Z,99116.89
2019-02-27T14:15:19.631Z,99114.10
2019-02-27T14:17:28.610Z,99111.66
2019-02-27T14:19:38.860Z,99113.26
2019-02-27T14:21:46.539Z,99111.36
2019-02-27T14:23:54.960Z,99122.09
2019-02-27T14:26:05.558Z,99117.56
2019-02-27T14:28:12.072Z,99127.78
2019-02-27T14:30:35.658Z,99124.79
2019-02-27T14:32:47.350Z,99113.15
2019-02-27T14:34:54.596Z,99105.63
2019-02-27T14:37:01.900Z,99103.29
2019-02-27T14:39:10.444Z,99098.72
2019-02-27T14:41:17.769Z,99091.16
2019-02-27T14:43:27.391Z,99085.75
2019-02-27T14:45:34.111Z,99078.34
2019-02-27T14:47:47.336Z,99076.39
2019-02-27T18:00:44.271Z,99114.37
2019-02-27T18:02:53.071Z,99153.91
2019-02-27T18:05:00.976Z,99150.82
2019-02-27T18:07:14.278Z,99140.85
2019-02-27T18:09:29.542Z,99126.83
2019-02-27T18:11:39.845Z,99113.28
2019-02-27T18:14:03.085Z,99100.36
2019-02-27T18:16:12.607Z,99097.50
2019-02-27T18:18:58.852Z,99093.60
2019-02-27T18:21:13.383Z,99098.28
2019-02-27T18:23:31.516Z,99084.69
2019-02-27T18:25:42.058Z,99089.20
2019-02-27T18:27:58.659Z,99078.36
2019-02-27T18:30:02.977Z,99075.24
2019-02-27T18:32:13.480Z,99071.48
2019-02-27T18:34:23.460Z,99071.03
2019-02-27T18:37:04.274Z,99062.52
2019-02-27T18:39:14.471Z,99069.74
2019-02-27T18:41:31.036Z,99069.52
2019-02-27T18:44:08.085Z,99063.98
2019-02-27T18:46:15.636Z,99056.31
2019-02-27T18:49:38.297Z,99067.86
2019-02-27T18:53:15.546Z,99057.47
2019-02-27T18:55:31.411Z,99061.12
2019-02-27T18:57:47.784Z,99069.61
2019-02-27T19:00:08.167Z,99067.88
2019-02-27T19:02:27.227Z,99071.16
2019-02-27T19:04:37.732Z,99086.00
2019-02-27T19:06:47.012Z,99060.24
2019-02-27T19:08:55.423Z,99048.77
2019-02-27T19:11:03.046Z,99021.13
2019-02-27T19:13:10.238Z,99026.13
2019-02-27T19:15:19.539Z,99030.22
2019-02-27T19:17:31.509Z,99035.79
2019-02-27T19:19:48.180Z,99036.92
2019-02-27T19:21:53.659Z,99013.64
2019-02-27T19:24:00.981Z,99003.84
2019-02-27T19:26:21.109Z,99018.91
2019-02-27T19:28:31.070Z,99029.19
2019-02-27T19:30:44.052Z,99025.55
2019-02-27T19:32:51.641Z,99024.26
2019-02-27T19:35:00.244Z,99008.80
2019-02-27T19:37:10.151Z,99009.80
2019-02-27T19:39:21.732Z,99006.45
2019-02-27T19:41:38.722Z,99006.02
2019-02-27T19:43:54.950Z,99009.10
2019-02-27T19:46:01.004Z,99021.84
2019-02-27T19:48:09.885Z,99030.05
2019-02-27T19:50:18.346Z,99003.31
2019-02-27T19:52:26.958Z,99015.36
2019-02-27T19:54:41.593Z,99013.77
2019-02-27T19:56:48.857Z,99017.25
2019-02-27T19:58:59.354Z,99014.00
2019-02-27T20:01:09.086Z,99016.78
2019-02-27T20:03:16.788Z,99037.47
2019-02-27T20:05:24.335Z,99051.39
2019-02-27T20:07:32.941Z,99061.43
2019-02-27T20:09:41.617Z,99054.48
2019-02-27T20:11:49.352Z,99035.50
2019-02-27T20:14:01.949Z,99027.56
2019-02-27T20:16:06.903Z,99016.60
2019-02-27T20:18:14.354Z,99012.20
2019-02-27T20:20:22.884Z,99018.05
2019-02-27T20:22:29.932Z,99022.16
2019-02-27T20:24:38.444Z,99017.34
2019-02-27T20:26:45.838Z,99036.22
2019-02-27T20:28:53.882Z,99041.20
2019-02-27T20:31:01.789Z,99045.72
2019-02-27T20:33:09.684Z,99052.06
2019-02-27T20:35:17.334Z,99053.60
2019-02-27T20:37:27.063Z,99074.64
2019-02-27T20:39:35.941Z,99084.68
2019-02-27T20:41:44.093Z,99086.83
2019-02-27T20:43:51.330Z,99092.49
2019-02-27T20:45:58.693Z,99084.80
2019-02-27T20:48:06.534Z,99091.80
2019-02-27T20:50:21.838Z,99092.76
2019-02-27T20:52:29.078Z,99089.20
2019-02-27T20:54:37.719Z,99110.76
2019-02-27T20:56:45.217Z,99113.52
2019-02-27T20:58:54.302Z,99125.80
2019-02-27T21:01:01.326Z,99124.76
2019-02-27T21:03:08.993Z,99130.03
2019-02-27T21:05:16.447Z,99125.37
2019-02-27T21:07:26.101Z,99122.92
2019-02-27T21:09:33.349Z,99116.52
2019-02-27T21:11:41.086Z,99125.22
2019-02-27T21:13:49.607Z,99135.05
2019-02-27T21:15:57.170Z,99137.63
2019-02-27T21:18:05.782Z,99135.75
2019-02-27T21:20:14.313Z,99146.31
2019-02-27T21:22:25.256Z,99147.23
2019-02-27T21:24:31.694Z,99147.67
2019-02-27T21:26:39.636Z,99138.42
2019-02-27T21:28:57.744Z,99134.81
2019-02-27T21:30:55.760Z,99138.81
2019-02-27T21:33:02.993Z,99145.66
2019-02-27T21:35:10.297Z,99134.25
2019-02-27T21:37:18.578Z,99149.05
2019-02-27T21:39:28.348Z,99148.11
2019-02-27T21:41:35.680Z,99144.39
2019-02-27T21:43:43.145Z,99141.77
2019-02-27T21:45:51.199Z,99137.52
2019-02-27T21:47:59.153Z,99140.50
2019-02-27T21:50:07.263Z,99151.34
2019-02-27T21:52:22.423Z,99154.67
2019-02-27T21:54:29.502Z,99156.09
2019-02-27T21:56:39.438Z,99164.42
2019-02-27T21:58:46.735Z,99179.45
2019-02-27T22:00:53.932Z,99148.12
2019-02-27T22:03:05.008Z,99155.61
2019-02-27T22:05:11.023Z,99154.78
2019-02-27T22:07:18.434Z,99169.92
2019-02-27T22:09:27.118Z,99178.39
2019-02-27T22:11:34.872Z,99186.36
2019-02-27T22:13:44.953Z,99186.97
2019-02-27T22:15:55.772Z,99188.73
2019-02-27T22:18:01.895Z,99191.92
2019-02-27T22:20:09.734Z,99195.80
2019-02-27T22:22:17.248Z,99203.65
2019-02-27T22:24:25.128Z,99214.27
2019-02-27T22:26:34.170Z,99207.11
2019-02-27T22:28:42.048Z,99211.56
2019-02-27T22:30:49.267Z,99208.94
2019-02-27T22:32:58.033Z,99197.70
2019-02-27T22:35:06.358Z,99195.22
2019-02-27T22:37:17.482Z,99196.73
2019-02-27T22:39:24.352Z,99194.68
2019-02-27T22:41:31.435Z,99195.73
2019-02-27T22:43:38.708Z,99197.32
2019-02-27T22:45:47.148Z,99200.55
2019-02-27T22:47:54.707Z,99205.41
2019-02-27T22:50:05.866Z,99202.06
2019-02-27T22:52:11.675Z,99204.25
2019-02-27T22:54:19.341Z,99216.09
2019-02-27T22:56:26.662Z,99221.31
2019-02-27T22:58:33.883Z,99221.84
2019-02-27T23:01:05.016Z,99227.94
2019-02-27T23:03:12.399Z,99227.56
2019-02-27T23:05:19.702Z,99219.46
2019-02-27T23:07:27.338Z,99227.33
2019-02-27T23:09:36.844Z,99230.63
2019-02-27T23:11:43.757Z,99242.11
2019-02-27T23:13:52.250Z,99232.84
2019-02-27T23:15:59.449Z,99242.88
2019-02-27T23:18:07.025Z,99252.39
2019-02-27T23:20:17.547Z,99241.63
2019-02-27T23:22:25.282Z,99236.61
2019-02-27T23:24:33.503Z,99241.88
2019-02-27T23:26:40.568Z,99244.84
2019-02-27T23:28:49.679Z,99249.98
2019-02-27T23:30:57.634Z,99249.82
2019-02-27T23:33:05.781Z,99250.88
2019-02-27T23:35:16.726Z,99263.00
2019-02-27T23:37:23.328Z,99271.39
2019-02-27T23:39:30.686Z,99274.34
2019-02-27T23:41:38.036Z,99276.50
2019-02-27T23:43:45.443Z,99272.76
2019-02-27T23:45:54.745Z,99283.38
2019-02-27T23:48:03.935Z,99285.65
2019-02-27T23:50:11.925Z,99295.58
2019-02-27T23:52:24.063Z,99297.81
2019-02-27T23:54:35.413Z,99295.13
2019-02-27T23:56:41.051Z,99303.77
2019-02-27T23:58:48.597Z,99312.21
